createdAt,value
2023-09-18T00:02:18.620Z,14.83
2023-09-18T00:04:46.790Z,14.82
2023-09-18T00:07:15.794Z,14.81
2023-09-18T00:09:43.807Z,14.79
2023-09-18T00:12:11.920Z,14.78
2023-09-18T00:14:39.997Z,14.75
2023-09-18T00:17:08.071Z,14.74
2023-09-18T00:19:36.217Z,14.72
2023-09-18T00:22:04.437Z,14.70
2023-09-18T00:24:32.958Z,14.67
2023-09-18T00:27:01.027Z,14.64
2023-09-18T00:29:29.107Z,14.62
2023-09-18T00:31:57.330Z,14.59
2023-09-18T00:34:25.423Z,14.57
2023-09-18T00:36:53.520Z,14.55
2023-09-18T00:39:22.154Z,14.54
2023-09-18T00:41:55.145Z,14.53
2023-09-18T00:44:23.451Z,14.51
2023-09-18T00:46:52.818Z,14.49
2023-09-18T00:49:21.533Z,14.48
2023-09-18T00:51:51.209Z,14.47
2023-09-18T00:54:20.892Z,14.46
2023-09-18T00:56:55.303Z,14.45
2023-09-18T00:59:23.554Z,14.44
2023-09-18T01:01:52.104Z,14.42
2023-09-18T01:04:21.510Z,14.41
2023-09-18T01:06:50.499Z,14.39
2023-09-18T01:09:19.588Z,14.38
2023-09-18T01:12:10.809Z,14.36
2023-09-18T01:14:45.961Z,14.31
2023-09-18T01:17:15.276Z,14.27
2023-09-18T01:19:48.366Z,14.23
2023-09-18T01:22:19.215Z,14.20
2023-09-18T01:24:49.383Z,14.16
2023-09-18T01:27:19.738Z,14.12
2023-09-18T01:29:49.152Z,14.08
2023-09-18T01:32:17.584Z,14.05
2023-09-18T01:34:51.803Z,14.02
2023-09-18T01:37:23.911Z,13.99
2023-09-18T01:39:53.859Z,13.96
2023-09-18T01:42:21.986Z,13.92
2023-09-18T01:44:54.410Z,13.89
2023-09-18T01:47:28.467Z,13.88
2023-09-18T01:49:56.781Z,13.86
2023-09-18T01:52:24.965Z,13.83
2023-09-18T01:54:53.101Z,13.81
2023-09-18T01:57:21.301Z,13.80
2023-09-18T01:59:49.449Z,13.79
2023-09-18T02:02:24.682Z,13.77
2023-09-18T02:05:06.930Z,13.76
2023-09-18T02:07:37.426Z,13.75
2023-09-18T02:10:06.645Z,13.74
2023-09-18T02:12:34.833Z,13.72
2023-09-18T02:15:07.731Z,13.71
2023-09-18T02:17:36.192Z,13.69
2023-09-18T02:20:06.206Z,13.68
2023-09-18T02:22:34.451Z,13.66
2023-09-18T02:25:02.601Z,13.64
2023-09-18T02:27:30.775Z,13.62
2023-09-18T02:29:58.900Z,13.61
2023-09-18T02:32:27.102Z,13.60
2023-09-18T02:34:55.776Z,13.59
2023-09-18T02:37:25.314Z,13.59
2023-09-18T02:39:53.442Z,13.58
2023-09-18T02:42:21.743Z,13.58
2023-09-18T02:44:49.721Z,13.57
2023-09-18T02:47:19.368Z,13.58
2023-09-18T02:49:47.618Z,13.57
2023-09-18T02:52:16.223Z,13.55
2023-09-18T02:54:44.431Z,13.56
2023-09-18T02:57:12.614Z,13.56
2023-09-18T02:59:40.861Z,13.56
2023-09-18T03:02:09.039Z,13.56
2023-09-18T03:04:37.519Z,13.56
2023-09-18T03:07:06.587Z,13.55
2023-09-18T03:09:34.608Z,13.53
2023-09-18T03:12:03.530Z,13.52
2023-09-18T03:14:31.767Z,13.52
2023-09-18T03:17:00.143Z,13.51
2023-09-18T03:19:28.305Z,13.49
2023-09-18T03:21:56.869Z,13.47
2023-09-18T03:24:24.932Z,13.45
2023-09-18T03:26:53.078Z,13.43
2023-09-18T03:29:21.259Z,13.41
2023-09-18T03:31:49.740Z,13.38
2023-09-18T03:34:18.934Z,13.36
2023-09-18T03:36:47.452Z,13.32
2023-09-18T03:39:15.674Z,13.29
2023-09-18T03:41:43.826Z,13.27
2023-09-18T03:44:12.138Z,13.25
2023-09-18T03:46:40.286Z,13.21
2023-09-18T03:49:08.950Z,13.19
2023-09-18T03:51:38.752Z,13.17
2023-09-18T03:54:07.025Z,13.14
2023-09-18T03:56:35.142Z,13.11
2023-09-18T03:59:03.376Z,13.08
2023-09-18T04:01:31.795Z,13.04
2023-09-18T04:04:00.144Z,12.97
2023-09-18T04:06:38.059Z,12.95
2023-09-18T04:09:06.223Z,12.93
2023-09-18T04:11:34.581Z,12.91
2023-09-18T04:14:04.504Z,12.90
2023-09-18T04:16:36.571Z,12.90
2023-09-18T04:19:04.992Z,12.91
2023-09-18T04:21:33.155Z,12.91
2023-09-18T04:24:01.194Z,12.91
2023-09-18T04:26:32.681Z,12.94
2023-09-18T04:29:02.130Z,12.95
2023-09-18T04:31:32.538Z,12.98
2023-09-18T04:34:01.630Z,13.02
2023-09-18T04:36:30.093Z,13.06
2023-09-18T04:38:58.280Z,13.11
2023-09-18T04:41:26.406Z,13.17
2023-09-18T04:43:56.571Z,13.20
2023-09-18T04:46:26.217Z,13.23
2023-09-18T04:48:55.003Z,13.29
2023-09-18T04:51:23.526Z,13.36
2023-09-18T04:53:53.307Z,13.43
2023-09-18T04:56:22.097Z,13.47
2023-09-18T04:58:50.944Z,13.51
2023-09-18T05:01:20.491Z,13.55
2023-09-18T05:03:50.613Z,13.55
2023-09-18T05:06:19.322Z,13.57
2023-09-18T05:08:47.697Z,13.62
2023-09-18T05:11:15.978Z,13.69
2023-09-18T05:13:44.020Z,13.78
2023-09-18T05:16:12.186Z,13.88
2023-09-18T05:18:42.261Z,13.99
2023-09-18T05:21:10.930Z,14.11
2023-09-18T05:23:39.294Z,14.24
2023-09-18T05:26:07.543Z,14.33
2023-09-18T05:28:35.616Z,14.33
2023-09-18T05:31:03.692Z,14.39
2023-09-18T05:33:31.928Z,14.47
2023-09-18T05:36:00.151Z,14.55
2023-09-18T05:38:28.483Z,14.60
2023-09-18T05:40:56.727Z,14.64
2023-09-18T05:43:24.993Z,14.67
2023-09-18T05:45:53.142Z,14.70
2023-09-18T05:48:21.572Z,14.71
2023-09-18T05:50:49.780Z,14.70
2023-09-18T05:53:18.133Z,14.73
2023-09-18T05:55:46.709Z,14.79
2023-09-18T05:58:15.441Z,14.88
2023-09-18T06:00:44.126Z,14.97
2023-09-18T06:03:13.895Z,15.02
2023-09-18T06:05:42.353Z,15.09
2023-09-18T06:08:10.663Z,15.17
2023-09-18T06:10:39.193Z,15.25
2023-09-18T06:13:07.607Z,15.33
2023-09-18T06:15:35.922Z,15.42
2023-09-18T06:18:04.863Z,15.53
2023-09-18T06:20:33.626Z,15.63
2023-09-18T06:23:01.856Z,15.73
2023-09-18T06:25:30.303Z,15.77
2023-09-18T06:27:59.568Z,15.81
2023-09-18T06:30:28.060Z,15.87
2023-09-18T06:32:56.390Z,15.92
2023-09-18T06:35:25.351Z,15.97
2023-09-18T06:37:56.266Z,16.06
2023-09-18T06:40:24.584Z,16.12
2023-09-18T06:42:55.795Z,16.16
2023-09-18T06:45:24.025Z,16.19
2023-09-18T06:47:52.447Z,16.23
2023-09-18T06:50:20.835Z,16.29
2023-09-18T06:52:49.097Z,16.34
2023-09-18T06:55:18.503Z,16.39
2023-09-18T06:57:48.898Z,16.45
2023-09-18T07:00:19.933Z,16.54
2023-09-18T07:02:48.583Z,16.61
2023-09-18T07:05:17.005Z,16.63
2023-09-18T07:07:45.263Z,16.68
2023-09-18T07:10:13.832Z,16.79
2023-09-18T07:12:42.113Z,16.90
2023-09-18T07:15:10.652Z,16.99
2023-09-18T07:17:39.131Z,17.05
2023-09-18T07:20:15.837Z,17.10
2023-09-18T07:22:51.076Z,17.18
2023-09-18T07:25:19.549Z,17.36
2023-09-18T07:27:48.094Z,17.59
2023-09-18T07:30:18.045Z,17.78
2023-09-18T07:32:47.738Z,17.92
2023-09-18T07:35:17.384Z,18.02
2023-09-18T07:37:48.309Z,18.12
2023-09-18T07:40:19.642Z,18.35
2023-09-18T07:42:48.226Z,18.65
2023-09-18T07:45:17.168Z,18.87
2023-09-18T07:47:45.740Z,18.95
2023-09-18T07:50:14.397Z,19.06
2023-09-18T07:52:42.793Z,19.21
2023-09-18T07:55:11.286Z,19.38
2023-09-18T07:57:39.674Z,19.55
2023-09-18T08:00:13.585Z,19.81
2023-09-18T08:02:42.579Z,20.09
2023-09-18T08:05:11.811Z,20.32
2023-09-18T08:07:41.619Z,20.55
2023-09-18T08:10:10.633Z,20.73
2023-09-18T08:12:39.018Z,20.88
2023-09-18T08:15:07.983Z,20.96
2023-09-18T08:17:36.666Z,21.03
2023-09-18T08:20:12.060Z,21.07
2023-09-18T08:22:41.111Z,21.10
2023-09-18T08:25:12.236Z,21.10
2023-09-18T08:27:45.661Z,21.12
2023-09-18T08:30:15.802Z,21.18
2023-09-18T08:32:45.036Z,21.25
2023-09-18T08:35:13.746Z,21.34
2023-09-18T08:37:43.327Z,21.40
2023-09-18T08:40:15.372Z,21.43
2023-09-18T08:42:49.065Z,21.50
2023-09-18T08:45:54.612Z,21.58
2023-09-18T08:48:23.291Z,21.71
2023-09-18T08:50:52.814Z,21.86
2023-09-18T08:53:21.373Z,22.07
2023-09-18T08:55:49.904Z,22.28
2023-09-18T08:58:20.822Z,22.43
2023-09-18T09:00:49.291Z,22.57
2023-09-18T09:03:18.405Z,22.71
2023-09-18T09:05:46.813Z,22.86
2023-09-18T09:08:16.290Z,23.00
2023-09-18T09:10:45.071Z,23.13
2023-09-18T09:13:23.845Z,23.24
2023-09-18T09:16:03.479Z,23.38
2023-09-18T09:18:33.079Z,23.53
2023-09-18T09:21:06.508Z,23.59
2023-09-18T09:23:55.126Z,23.63
2023-09-18T09:26:24.444Z,23.69
2023-09-18T09:28:53.865Z,23.74
2023-09-18T09:31:29.521Z,23.79
2023-09-18T09:33:59.597Z,23.84
2023-09-18T09:36:27.963Z,23.87
2023-09-18T09:39:00.135Z,23.88
2023-09-18T09:41:29.903Z,23.85
2023-09-18T09:43:59.622Z,23.87
2023-09-18T09:46:28.962Z,23.92
2023-09-18T09:49:07.948Z,23.95
2023-09-18T09:51:36.789Z,23.99
2023-09-18T09:54:05.513Z,24.08
2023-09-18T09:56:55.415Z,24.14
2023-09-18T09:59:26.008Z,24.08
2023-09-18T10:01:55.163Z,23.99
2023-09-18T10:04:25.601Z,23.95
2023-09-18T10:07:06.983Z,23.99
2023-09-18T10:09:42.492Z,24.02
2023-09-18T10:12:21.765Z,24.05
2023-09-18T10:15:01.445Z,24.08
2023-09-18T10:17:33.135Z,24.09
2023-09-18T10:20:18.034Z,24.11
2023-09-18T10:22:51.300Z,24.20
2023-09-18T10:25:25.277Z,24.30
2023-09-18T10:28:03.021Z,24.34
2023-09-18T10:30:34.156Z,24.31
2023-09-18T10:33:02.894Z,24.34
2023-09-18T10:35:31.860Z,24.37
2023-09-18T10:38:02.337Z,24.37
2023-09-18T10:40:32.747Z,24.36
2023-09-18T10:43:06.400Z,24.36
2023-09-18T10:45:35.077Z,24.39
2023-09-18T10:48:04.121Z,24.40
2023-09-18T10:50:32.426Z,24.35
2023-09-18T10:53:00.861Z,24.31
2023-09-18T10:55:29.481Z,24.28
2023-09-18T10:57:59.652Z,24.31
2023-09-18T11:00:30.154Z,24.34
2023-09-18T11:03:31.149Z,24.40
2023-09-18T11:06:15.465Z,24.49
2023-09-18T11:08:55.042Z,24.57
2023-09-18T11:11:27.115Z,24.62
2023-09-18T11:13:55.514Z,24.59
2023-09-18T11:16:29.861Z,24.59
2023-09-18T11:19:05.386Z,24.60
2023-09-18T11:21:35.660Z,24.58
2023-09-18T11:24:05.501Z,24.60
2023-09-18T11:26:38.495Z,24.64
2023-09-18T11:29:10.643Z,24.70
2023-09-18T11:31:55.541Z,24.75
2023-09-18T11:34:27.851Z,24.84
2023-09-18T11:36:57.255Z,24.92
2023-09-18T11:39:42.131Z,25.00
2023-09-18T11:42:23.692Z,25.00
2023-09-18T11:44:52.311Z,25.00
2023-09-18T11:47:25.811Z,25.00
2023-09-18T11:49:59.631Z,25.01
2023-09-18T11:52:30.225Z,25.06
2023-09-18T11:55:01.384Z,25.11
2023-09-18T11:57:32.459Z,25.16
2023-09-18T12:00:13.148Z,25.22
2023-09-18T12:02:46.994Z,25.25
2023-09-18T12:05:16.613Z,25.29
2023-09-18T12:07:46.850Z,25.33
2023-09-18T12:10:18.552Z,25.37
2023-09-18T12:12:47.099Z,25.40
2023-09-18T12:15:18.297Z,25.46
2023-09-18T12:17:47.570Z,25.54
2023-09-18T12:20:20.218Z,25.58
2023-09-18T12:22:52.413Z,25.58
2023-09-18T12:25:21.084Z,25.58
2023-09-18T12:27:53.938Z,25.56
2023-09-18T12:30:24.542Z,25.51
2023-09-18T12:32:54.889Z,25.48
2023-09-18T12:35:24.561Z,25.48
2023-09-18T12:37:53.361Z,25.49
2023-09-18T12:40:29.787Z,25.48
2023-09-18T12:43:02.498Z,25.48
2023-09-18T12:45:31.214Z,25.47
2023-09-18T12:48:00.921Z,25.46
2023-09-18T12:50:29.273Z,25.44
2023-09-18T12:53:11.893Z,25.43
2023-09-18T12:55:41.811Z,25.45
2023-09-18T12:58:13.321Z,25.46
2023-09-18T13:00:52.546Z,25.46
2023-09-18T13:03:20.931Z,25.48
2023-09-18T13:05:50.650Z,25.54
2023-09-18T13:08:23.851Z,25.56
2023-09-18T13:10:52.046Z,25.54
2023-09-18T13:13:24.570Z,25.57
2023-09-18T13:15:56.350Z,25.58
2023-09-18T13:18:31.722Z,25.62
2023-09-18T13:21:00.362Z,25.64
2023-09-18T13:23:30.718Z,25.64
2023-09-18T13:26:06.941Z,25.59
2023-09-18T13:28:37.405Z,25.49
2023-09-18T13:31:08.121Z,25.42
2023-09-18T13:33:41.905Z,25.40
2023-09-18T13:36:10.509Z,25.42
2023-09-18T13:38:38.727Z,25.38
2023-09-18T13:41:07.232Z,25.38
2023-09-18T13:43:37.360Z,25.41
2023-09-18T13:46:06.509Z,25.39
2023-09-18T13:48:35.022Z,25.32
2023-09-18T13:51:04.792Z,25.27
2023-09-18T13:53:33.536Z,25.23
2023-09-18T13:56:01.854Z,25.20
2023-09-18T13:58:30.261Z,25.19
2023-09-18T14:00:58.692Z,25.17
2023-09-18T14:03:27.106Z,25.16
2023-09-18T14:05:55.548Z,25.21
2023-09-18T14:08:23.891Z,25.26
2023-09-18T14:10:52.457Z,25.26
2023-09-18T14:13:20.953Z,25.27
2023-09-18T14:15:52.254Z,25.24
2023-09-18T14:18:21.138Z,25.20
2023-09-18T14:20:49.546Z,25.19
2023-09-18T14:23:17.804Z,25.15
2023-09-18T14:25:45.857Z,25.10
2023-09-18T14:28:14.884Z,25.05
2023-09-18T14:30:43.043Z,25.03
2023-09-18T14:33:12.356Z,25.02
2023-09-18T14:35:40.814Z,25.00
2023-09-18T14:38:09.661Z,24.97
2023-09-18T14:40:38.395Z,24.92
2023-09-18T14:43:06.852Z,24.91
2023-09-18T14:45:36.275Z,24.92
2023-09-18T14:48:04.894Z,24.93
2023-09-18T14:50:33.224Z,24.97
2023-09-18T14:53:01.356Z,24.97
2023-09-18T14:55:29.575Z,24.95
2023-09-18T14:57:57.851Z,24.94
2023-09-18T15:00:26.490Z,24.94
2023-09-18T15:02:55.086Z,24.93
2023-09-18T15:05:23.451Z,24.90
2023-09-18T15:07:51.842Z,24.86
2023-09-18T15:10:19.969Z,24.86
2023-09-18T15:12:48.116Z,24.86
2023-09-18T15:15:16.224Z,24.85
2023-09-18T15:17:44.349Z,24.81
2023-09-18T15:20:14.305Z,24.75
2023-09-18T15:22:42.554Z,24.70
2023-09-18T15:25:12.011Z,24.66
2023-09-18T15:27:40.290Z,24.63
2023-09-18T15:30:09.042Z,24.58
2023-09-18T15:32:49.816Z,24.50
2023-09-18T15:35:18.696Z,24.41
2023-09-18T15:37:46.969Z,24.34
2023-09-18T15:40:17.239Z,24.25
2023-09-18T15:42:45.975Z,24.15
2023-09-18T15:45:14.377Z,24.05
2023-09-18T15:47:45.929Z,23.95
2023-09-18T15:50:14.973Z,23.85
2023-09-18T15:52:43.465Z,23.76
2023-09-18T15:55:12.260Z,23.65
2023-09-18T15:57:41.922Z,23.58
2023-09-18T16:00:11.842Z,23.50
2023-09-18T16:02:44.863Z,23.41
2023-09-18T16:05:14.078Z,23.32
2023-09-18T16:07:43.157Z,23.22
2023-09-18T16:10:11.847Z,23.11
2023-09-18T16:12:40.167Z,23.02
2023-09-18T16:15:09.187Z,22.93
2023-09-18T16:17:37.643Z,22.82
2023-09-18T16:20:07.667Z,22.74
2023-09-18T16:22:36.199Z,22.64
2023-09-18T16:25:04.887Z,22.53
2023-09-18T16:27:33.261Z,22.43
2023-09-18T16:30:01.644Z,22.34
2023-09-18T16:32:30.654Z,22.25
2023-09-18T16:34:59.332Z,22.16
2023-09-18T16:37:27.876Z,22.07
2023-09-18T16:39:56.004Z,21.99
2023-09-18T16:42:24.377Z,21.89
2023-09-18T16:44:52.564Z,21.81
2023-09-18T16:47:22.532Z,21.75
2023-09-18T16:49:50.830Z,21.71
2023-09-18T16:52:20.578Z,21.65
2023-09-18T16:54:50.390Z,21.61
2023-09-18T16:57:19.238Z,21.58
2023-09-18T16:59:47.364Z,21.52
2023-09-18T17:02:15.582Z,21.49
2023-09-18T17:04:51.170Z,21.46
2023-09-18T17:07:19.825Z,21.45
2023-09-18T17:09:48.390Z,21.41
2023-09-18T17:12:16.652Z,21.42
2023-09-18T17:14:44.861Z,21.39
2023-09-18T17:17:13.064Z,21.33
2023-09-18T17:19:41.919Z,21.29
2023-09-18T17:22:10.003Z,21.30
2023-09-18T17:24:39.241Z,21.32
2023-09-18T17:27:10.069Z,21.28
2023-09-18T17:29:38.134Z,21.20
2023-09-18T17:32:06.207Z,21.17
2023-09-18T17:34:34.218Z,21.13
2023-09-18T17:37:02.227Z,21.08
2023-09-18T17:39:30.339Z,21.08
2023-09-18T17:41:58.582Z,21.08
2023-09-18T17:44:26.746Z,21.09
2023-09-18T17:46:54.767Z,21.03
2023-09-18T17:49:25.951Z,21.02
2023-09-18T17:51:54.124Z,21.05
2023-09-18T17:54:22.649Z,21.07
2023-09-18T17:56:50.798Z,21.13
2023-09-18T17:59:19.031Z,21.12
2023-09-18T18:01:47.285Z,21.04
2023-09-18T18:04:15.822Z,20.93
2023-09-18T18:06:46.990Z,20.88
2023-09-18T18:09:15.346Z,20.81
2023-09-18T18:11:43.356Z,20.76
2023-09-18T18:14:12.101Z,20.71
2023-09-18T18:16:40.141Z,20.61
2023-09-18T18:19:08.362Z,20.56
2023-09-18T18:21:36.458Z,20.50
2023-09-18T18:24:05.389Z,20.38
2023-09-18T18:26:35.643Z,20.33
2023-09-18T18:29:05.169Z,20.33
2023-09-18T18:31:33.787Z,20.32
2023-09-18T18:34:02.302Z,20.35
2023-09-18T18:36:31.702Z,20.37
2023-09-18T18:39:00.807Z,20.32
2023-09-18T18:41:30.183Z,20.31
2023-09-18T18:43:58.478Z,20.37
2023-09-18T18:46:28.447Z,20.37
2023-09-18T18:48:56.563Z,20.29
2023-09-18T18:51:26.410Z,20.24
2023-09-18T18:53:55.299Z,20.16
2023-09-18T18:56:23.531Z,20.04
2023-09-18T18:58:51.662Z,19.96
2023-09-18T19:01:24.754Z,19.87
2023-09-18T19:03:54.961Z,19.85
2023-09-18T19:06:23.609Z,19.96
2023-09-18T19:08:52.001Z,19.95
2023-09-18T19:11:21.050Z,19.91
2023-09-18T19:13:49.209Z,19.90
2023-09-18T19:16:17.368Z,19.94
2023-09-18T19:18:45.674Z,19.97
2023-09-18T19:21:13.752Z,20.02
2023-09-18T19:23:44.112Z,20.02
2023-09-18T19:26:12.764Z,20.08
2023-09-18T19:28:40.969Z,20.07
2023-09-18T19:31:09.944Z,20.00
2023-09-18T19:33:41.970Z,20.03
2023-09-18T19:36:10.278Z,20.23
2023-09-18T19:38:38.570Z,20.26
2023-09-18T19:41:07.262Z,20.25
2023-09-18T19:43:35.607Z,20.25
2023-09-18T19:46:04.069Z,20.18
2023-09-18T19:48:32.704Z,20.19
2023-09-18T19:51:02.582Z,20.20
2023-09-18T19:53:30.944Z,20.12
2023-09-18T19:55:59.090Z,20.10
2023-09-18T19:58:27.332Z,20.06
2023-09-18T20:00:55.532Z,20.01
2023-09-18T20:03:24.773Z,19.98
2023-09-18T20:05:53.106Z,19.92
2023-09-18T20:08:21.353Z,19.83
2023-09-18T20:10:49.350Z,19.76
2023-09-18T20:13:17.452Z,19.66
2023-09-18T20:15:45.364Z,19.55
2023-09-18T20:18:14.262Z,19.42
2023-09-18T20:20:42.717Z,19.31
2023-09-18T20:23:10.815Z,19.18
2023-09-18T20:25:40.345Z,19.03
2023-09-18T20:28:08.641Z,18.90
2023-09-18T20:30:37.735Z,18.78
2023-09-18T20:33:05.964Z,18.67
2023-09-18T20:35:34.318Z,18.55
2023-09-18T20:38:02.356Z,18.45
2023-09-18T20:40:30.482Z,18.37
2023-09-18T20:42:58.584Z,18.29
2023-09-18T20:45:27.287Z,18.23
2023-09-18T20:47:55.510Z,18.16
2023-09-18T20:50:26.736Z,18.09
2023-09-18T20:52:54.767Z,18.04
2023-09-18T20:55:22.930Z,18.00
2023-09-18T20:57:50.961Z,17.94
2023-09-18T21:00:19.137Z,17.88
2023-09-18T21:02:48.058Z,17.83
2023-09-18T21:05:17.989Z,17.78
2023-09-18T21:07:46.377Z,17.78
2023-09-18T21:10:15.294Z,17.76
2023-09-18T21:12:43.477Z,17.73
2023-09-18T21:15:11.778Z,17.67
2023-09-18T21:17:40.079Z,17.59
2023-09-18T21:20:10.436Z,17.50
2023-09-18T21:22:40.849Z,17.40
2023-09-18T21:25:10.689Z,17.29
2023-09-18T21:27:39.063Z,17.18
2023-09-18T21:30:09.162Z,17.08
2023-09-18T21:32:38.605Z,16.97
2023-09-18T21:35:07.337Z,16.89
2023-09-18T21:37:35.520Z,16.84
2023-09-18T21:40:05.060Z,16.79
2023-09-18T21:42:33.070Z,16.73
2023-09-18T21:45:01.364Z,16.68
2023-09-18T21:47:29.803Z,16.62
2023-09-18T21:49:58.719Z,16.58
2023-09-18T21:52:26.903Z,16.53
2023-09-18T21:54:54.950Z,16.48
2023-09-18T21:57:23.054Z,16.43
2023-09-18T21:59:51.184Z,16.39
2023-09-18T22:02:19.275Z,16.35
2023-09-18T22:04:47.402Z,16.31
2023-09-18T22:07:15.481Z,16.27
2023-09-18T22:09:47.847Z,16.23
2023-09-18T22:12:15.917Z,16.18
2023-09-18T22:14:44.769Z,16.12
2023-09-18T22:17:13.045Z,16.06
2023-09-18T22:19:41.122Z,15.99
2023-09-18T22:22:10.983Z,15.93
2023-09-18T22:24:38.996Z,15.88
2023-09-18T22:27:08.838Z,15.85
2023-09-18T22:29:37.001Z,15.81
2023-09-18T22:32:05.696Z,15.77
2023-09-18T22:34:33.981Z,15.74
2023-09-18T22:37:02.032Z,15.72
2023-09-18T22:39:33.187Z,15.69
2023-09-18T22:42:02.225Z,15.65
2023-09-18T22:45:08.178Z,15.61
2023-09-18T22:48:14.169Z,15.56
2023-09-18T22:51:19.926Z,15.51
2023-09-18T22:53:47.862Z,15.47
2023-09-18T22:56:17.493Z,15.45
2023-09-18T22:58:47.957Z,15.43
2023-09-18T23:01:17.611Z,15.42
2023-09-18T23:03:48.763Z,15.41
2023-09-18T23:06:17.493Z,15.37
2023-09-18T23:08:45.623Z,15.35
2023-09-18T23:11:14.068Z,15.32
2023-09-18T23:13:44.381Z,15.28
2023-09-18T23:16:13.838Z,15.25
2023-09-18T23:18:42.063Z,15.21
2023-09-18T23:21:10.711Z,15.18
2023-09-18T23:23:38.945Z,15.16
2023-09-18T23:26:09.744Z,15.18
2023-09-18T23:28:38.430Z,15.18
2023-09-18T23:31:07.843Z,15.16
2023-09-18T23:33:36.093Z,15.15
2023-09-18T23:36:04.413Z,15.14
2023-09-18T23:38:32.639Z,15.11
2023-09-18T23:41:01.497Z,15.07
2023-09-18T23:43:29.887Z,15.01
2023-09-18T23:45:59.761Z,14.96
2023-09-18T23:48:28.016Z,14.96
2023-09-18T23:51:00.412Z,15.01
2023-09-18T23:53:29.947Z,15.07
2023-09-18T23:56:01.166Z,15.10
2023-09-18T23:58:30.578Z,15.15
